East Farmington, Wisconsin
Current Conditions -  °F | °C
As of 6:15 AM on Friday 21 Nov 2014 (Local Time) from KOEO Reporting Station
Clear Clear  
Wind Chill: -7°   Ceiling: Unl
Heat Index:   Visibility: 10mi
Dew Point:   Wind: 7mph
Humidity: 81%   Direction: 160°SSE
Pressure: 30.25"   Gusts: NA
Location:  45.3193°N, 92.6951°W
Report Text: KOEO 211215Z AUTO 16006KT 10SM CLR M15/M18 A3025 RMK AO2 T11511177
Loading
Personal Weather Stations






























Interactive Weather Map New forecast layout! Learn more

10-Day Weather Forecast

Advertisements
Track Severe Weather on mobile